Flight Track Log - Related Links

Times and Time Zones

All times are in EDT time to prevent confusion due to time zone crossing. See the DAL268 flight status page for this flight to view local times or setup timezone preferences in your user account.

Time Position Orientation Groundspeed Altitude Reporting Facility
EDT Latitude Longitude Course Direction KTS MPH feet Rate Location/Type
Thu 11:40:25 PM 40.6370 -73.7800 261° West 11 13  Level FlightAware ADS-B
Thu 11:41:11 PM 40.6370 -73.7790 90° East 11 13 40 Level FlightAware ADS-B
Thu 11:41:51 PM 40.6380 -73.7790 360° North 9 10 42 Level FlightAware ADS-B
Thu 11:44:00 PM 40.5877 -73.4006 108° East  Level FlightAware Approximate
Thu 11:45:00 PM 40.5659 -73.2254 97° East  Level FlightAware Approximate
Thu 11:46:00 PM 40.5500 -73.0440 90° East  Level FlightAware Approximate
Thu 11:47:00 PM 40.5783 -72.8703 72° East  Level FlightAware Approximate
Thu 11:48:00 PM 40.6326 -72.7022 66° East  Level FlightAware Approximate
Thu 11:49:00 PM 40.6682 -72.5280 69° East  Level FlightAware Approximate
Thu 11:49:32 PM 40.6360 -73.7780 143° Southeast 20 23  Level FlightAware ADS-B
Thu 11:50:13 PM 40.6350 -73.7780 180° South 19 22 68 Level FlightAware ADS-B
Thu 11:50:39 PM 40.6340 -73.7780 180° South 21 24 72 Level FlightAware ADS-B
Thu 11:50:59 PM 40.6330 -73.7790 217° Southwest 26 30 75 Level FlightAware ADS-B
Thu 11:51:20 PM 40.6330 -73.7810 270° West 28 32 77 Level FlightAware ADS-B
Thu 11:52:03 PM 40.6350 -73.7840 311° West 15 17 79 Level FlightAware ADS-B
Thu 11:53:05 PM 40.6370 -73.7890 298° West 18 21 85 Level FlightAware ADS-B
Thu 11:53:45 PM 40.6390 -73.7930 303° West 26 30 94 Level FlightAware ADS-B
Thu 11:54:26 PM 40.6400 -73.7950 303° West 30 35 101 Level FlightAware ADS-B
Thu 11:55:07 PM 40.6410 -73.7980 294° West 34 39 109 Level FlightAware ADS-B
Thu 11:56:19 PM 40.6440 -73.8040 303° West 17 20 119 Level FlightAware ADS-B
Thu 11:57:39 PM 40.6480 -73.8130 300° West 21 24 141 Level FlightAware ADS-B
Thu 11:58:24 PM 40.6490 -73.8150 303° West 16 18 178 Level FlightAware ADS-B
Fri 12:01:00 AM 40.8594 -73.4280 90° East  Level Estimated
Fri 12:02:00 AM 40.9400 -73.2785 97° East  Level Estimated
Fri 12:02:13 AM 40.6490 -73.8160 97° East 23 26  Level FlightAware ADS-B
Fri 12:02:42 AM 40.6120 -73.7470 125° Southeast 183 211 900 1,393 Climbing FlightAware ADS-B
Fri 12:03:09 AM 40.5960 -73.7250 134° Southeast 208 239 1,300 842 Climbing FlightAware ADS-B
Fri 12:03:39 AM 40.5730 -73.6950 135° Southeast 247 284 1,700 1,119 Climbing FlightAware ADS-B
Fri 12:04:08 AM 40.5460 -73.6620 137° Southeast 273 314 2,400 1,756 Climbing FlightAware ADS-B
Fri 12:04:20 AM 40.5340 -73.6490 141° Southeast 278 320 2,900 2,318 Climbing FlightAware ADS-B
Fri 12:04:52 AM 40.5030 -73.6110 137° Southeast 297 342 4,100 2,604 Climbing FlightAware ADS-B
Fri 12:05:13 AM 40.4802 -73.5863 141° Southeast 292 336 5,200 2,667 Climbing FlightAware ADS-B
Fri 12:05:28 AM 40.4637 -73.5693 142° Southeast 303 349 5,700 2,323 Climbing FlightAware ADS-B
Fri 12:05:44 AM 40.4464 -73.5509 141° Southeast 307 353 6,400 2,538 Climbing FlightAware ADS-B
Fri 12:05:54 AM 40.4349 -73.5394 143° Southeast 308 354 6,800 2,625 Climbing FlightAware ADS-B
Fri 12:06:00 AM 40.4284 -73.5321 139° Southeast 305 351 7,100 3,333 Climbing FlightAware ADS-B
Fri 12:06:03 AM 40.4252 -73.5282 137° Southeast 305 351 7,300 3,000 Climbing FlightAware ADS-B
Fri 12:06:08 AM 40.4209 -73.5212 129° Southeast 308 354 7,500 2,000 Climbing FlightAware ADS-B
Fri 12:06:12 AM 40.4175 -73.5149 125° Southeast 312 359 7,600 857 Climbing FlightAware ADS-B
Fri 12:06:15 AM 40.4153 -73.5097 119° Southeast 314 361 7,600 857 Level FlightAware ADS-B
Fri 12:06:19 AM 40.4132 -73.5027 112° Southeast 319 367 7,700 1,714 Climbing FlightAware ADS-B
Fri 12:06:22 AM 40.4116 -73.4969 110° East 325 374 7,800 1,714 Climbing FlightAware ADS-B
Fri 12:06:26 AM 40.4103 -73.4891 102° East 329 379 7,900 1,714 Climbing FlightAware ADS-B
Fri 12:06:29 AM 40.4098 -73.4832 96° East 330 380 8,000 3,000 Climbing FlightAware ADS-B
Fri 12:06:34 AM 40.4095 -73.4732 92° East 330 380 8,300 3,333 Climbing FlightAware ADS-B
Fri 12:06:38 AM 40.4097 -73.4653 88° East 327 376 8,500 3,750 Climbing FlightAware ADS-B
Fri 12:06:42 AM 40.4104 -73.4573 83° East 324 373 8,800 4,000 Climbing FlightAware ADS-B
Fri 12:06:50 AM 40.4126 -73.4440 78° East 317 365 9,300 3,429 Climbing FlightAware ADS-B
Fri 12:06:56 AM 40.4154 -73.4313 74° East 316 364 9,600 3,000 Climbing FlightAware ADS-B
Fri 12:07:00 AM 40.4178 -73.4243 66° East 317 365 9,800 1,800 Climbing FlightAware ADS-B
Fri 12:07:06 AM 40.4220 -73.4139 62° Northeast 320 368 9,900 1,125 Climbing FlightAware ADS-B
Fri 12:07:16 AM 40.4289 -73.3965 62° Northeast 328 377 10,100 1,610 Climbing FlightAware ADS-B
Fri 12:07:47 AM 40.4491 -73.3382 66° East 348 400 11,000 1,452 Climbing FlightAware ADS-B
Fri 12:08:18 AM 40.4695 -73.2754 67° East 371 427 11,600 1,143 Climbing FlightAware ADS-B
Fri 12:08:50 AM 40.4929 -73.2085 65° Northeast 401 461 12,200 1,238 Climbing FlightAware ADS-B
Fri 12:09:21 AM 40.5191 -73.1358 65° Northeast 422 486 12,900 1,742 Climbing FlightAware ADS-B
Fri 12:09:52 AM 40.5459 -73.0632 64° Northeast 433 498 14,000 2,000 Climbing FlightAware ADS-B
Fri 12:10:24 AM 40.5737 -72.9861 65° Northeast 443 510 15,000 1,935 Climbing FlightAware ADS-B
Fri 12:10:54 AM 40.6004 -72.9123 65° Northeast 451 519 16,000 2,000 Climbing FlightAware ADS-B
Fri 12:11:24 AM 40.6273 -72.8373 65° Northeast 457 526 17,000 1,869 Climbing FlightAware ADS-B
Fri 12:11:55 AM 40.6551 -72.7612 64° Northeast 463 533 17,900 1,875 Climbing FlightAware ADS-B
Fri 12:12:28 AM 40.6862 -72.6740 65° Northeast 470 541 19,000 1,810 Climbing FlightAware ADS-B
Fri 12:12:58 AM 40.7142 -72.5955 65° Northeast 476 548 19,800 1,600 Climbing FlightAware ADS-B
Fri 12:13:28 AM 40.7425 -72.5159 65° Northeast 485 558 20,600 1,475 Climbing FlightAware ADS-B
Fri 12:13:59 AM 40.7719 -72.4325 65° Northeast 491 565 21,300 1,475 Climbing FlightAware ADS-B
Fri 12:14:29 AM 40.8010 -72.3505 65° Northeast 496 571 22,100 1,672 Climbing FlightAware ADS-B
Fri 12:15:00 AM 40.8308 -72.2650 65° Northeast 500 575 23,000 1,594 Climbing FlightAware ADS-B
Fri 12:15:33 AM 40.8628 -72.1760 65° Northeast 504 580 23,800 1,301 Climbing FlightAware ADS-B
Fri 12:16:23 AM 40.9124 -72.0319 65° Northeast 509 586 24,800 1,185 Climbing FlightAware ADS-B
Fri 12:16:54 AM 40.9433 -71.9456 65° Northeast 523 602 25,400 1,059 Climbing FlightAware ADS-B
Fri 12:17:31 AM 40.9811 -71.8372 65° Northeast 532 612 26,000 876 Climbing FlightAware ADS-B
Fri 12:18:23 AM 41.0320 -71.6910 65° Northeast 542 624 26,700 913 Climbing FlightAware ADS-B
Fri 12:19:03 AM 41.0730 -71.5710 66° East 552 635 27,400 667 Climbing FlightAware ADS-B
Fri 12:19:53 AM 41.1220 -71.4280 66° East 558 642 27,700 1,175 Climbing FlightAware ADS-B
Fri 12:20:40 AM 41.1780 -71.2630 66° East 560 644 29,300 1,826 Climbing FlightAware ADS-B
Fri 12:21:25 AM 41.2280 -71.1170 65° Northeast 550 633 30,500 1,200 Climbing FlightAware ADS-B
Fri 12:22:05 AM 41.2690 -70.9940 66° East 551 634 31,000 375 Climbing FlightAware ADS-B
Fri 12:22:45 AM 41.3050 -70.8860 66° East 545 627 31,000  Level FlightAware ADS-B
Fri 12:23:30 AM 41.3560 -70.7320 66° East 544 626 31,000  Level FlightAware ADS-B
Fri 12:24:10 AM 41.3950 -70.6150 66° East 545 627 31,000  Level FlightAware ADS-B
Fri 12:24:57 AM 41.4360 -70.4880 67° East 545 627 31,000  Level FlightAware ADS-B
Fri 12:25:50 AM 41.4690 -70.3920 65° Northeast 545 627 31,000  Level FlightAware ADS-B
Fri 12:26:28 AM 41.5010 -70.2920 67° East 545 627 31,000  Level FlightAware ADS-B
Fri 12:27:16 AM 41.5410 -70.1660 67° East 545 627 31,000  Level FlightAware ADS-B
Fri 12:27:56 AM 41.6190 -69.9310 66° East 548 631 31,000  Level FlightAware ADS-B
Fri 12:28:35 AM 41.6620 -69.7970 67° East 547 629 31,000  Level FlightAware ADS-B
Fri 12:29:17 AM 41.7030 -69.6730 66° East 547 629 31,000  Level FlightAware ADS-B
Fri 12:30:42 AM 41.7890 -69.4050 67° East 549 632 31,000  Level FlightAware ADS-B
Fri 12:31:42 AM 41.8440 -69.2260 68° East 550 633 31,000  Level FlightAware ADS-B
Fri 12:32:35 AM 41.8980 -69.0580 67° East 550 633 31,000  Level FlightAware ADS-B
Fri 12:33:33 AM 41.9600 -68.8570 67° East 553 636 31,000  Level FlightAware ADS-B
Fri 12:34:43 AM 42.0230 -68.6600 67° East 553 636 31,000  Level FlightAware ADS-B
Fri 12:35:18 AM 42.0650 -68.5160 69° East 554 638 31,000  Level FlightAware ADS-B
Fri 12:36:03 AM 42.1080 -68.3760 67° East 554 638 31,000  Level FlightAware ADS-B
Fri 12:36:43 AM 42.1480 -68.2460 67° East 553 636 31,000  Level FlightAware ADS-B
Fri 12:37:28 AM 42.1910 -68.1050 68° East 552 635 31,000  Level FlightAware ADS-B
Fri 12:38:09 AM 42.2290 -67.9810 67° East 552 635 31,000  Level FlightAware ADS-B
Fri 12:38:49 AM 42.2590 -67.8790 68° East 548 631 31,000  Level FlightAware ADS-B
Fri 12:39:39 AM 42.2990 -67.7440 68° East 548 631 31,000  Level FlightAware ADS-B
Fri 12:40:19 AM 42.3540 -67.5610 68° East 31,000  Level FlightAware ADS-B
Fri 12:45:51 AM 42.6630 -66.4920 68° East 550 633 31,000  Level FlightAware ADS-B
Fri 12:46:31 AM 42.7000 -66.3630 69° East 551 634 31,000  Level FlightAware ADS-B
Fri 12:47:17 AM 42.7420 -66.2170 69° East 551 634 31,000  Level FlightAware ADS-B
Fri 12:47:56 AM 42.7770 -66.0880 70° East 550 633 31,000  Level FlightAware ADS-B
Fri 12:48:42 AM 42.8160 -65.9480 69° East 551 634 31,000  Level FlightAware ADS-B
Fri 12:49:18 AM 42.8460 -65.8380 70° East 551 634 31,000  Level FlightAware ADS-B
Fri 12:49:58 AM 42.8770 -65.7280 69° East 551 634 31,000  Level FlightAware ADS-B
Fri 12:50:47 AM 42.9150 -65.5920 69° East 551 634 31,000  Level FlightAware ADS-B
Fri 12:51:23 AM 42.9430 -65.4930 69° East 551 634 31,000  Level FlightAware ADS-B
Fri 12:52:11 AM 42.9810 -65.3600 69° East 551 634 31,000  Level FlightAware ADS-B
Fri 12:52:47 AM 43.0090 -65.2600 69° East 551 634 31,000  Level FlightAware ADS-B
Fri 12:53:37 AM 43.0790 -64.9850 71° East 545 627 31,000  Level FlightAware ADS-B
Fri 12:54:33 AM 43.1280 -64.8000 70° East 546 628 31,000  Level FlightAware ADS-B
Fri 12:55:12 AM 43.1620 -64.6720 70° East 547 629 31,000  Level FlightAware ADS-B
Fri 12:55:53 AM 43.1950 -64.5440 70° East 548 631 31,000  Level FlightAware ADS-B
Fri 12:56:44 AM 43.2390 -64.3770 70° East 549 632 31,000  Level FlightAware ADS-B
Fri 12:57:33 AM 43.2740 -64.2390 71° East 549 632 31,000  Level FlightAware ADS-B
Fri 12:58:09 AM 43.2990 -64.1380 71° East 549 632 31,000 86 Level FlightAware ADS-B
Fri 12:58:51 AM 43.3440 -63.9690 70° East 31,000 115 Level FlightAware ADS-B
Fri 12:59:53 AM 43.3833 -63.7500 70° East 550 633 31,200 590 Climbing Moncton Center
Fri 01:00:53 AM 43.4333 -63.5500 71° East 540 621 32,200 900 Climbing Moncton Center
Fri 01:01:53 AM 43.4833 -63.3333 72° East 550 633 33,000 400 Climbing Moncton Center
Fri 01:02:53 AM 43.5333 -63.1500 69° East 560 644 33,000  Level Moncton Center
Fri 01:08:09 AM 43.8080 -62.0790 69° East 33,000  Level FlightAware ADS-B
Fri 01:08:53 AM 43.8167 -61.9167 69° East 550 633 33,000  Level Moncton Center
Fri 01:09:31 AM 43.8667 -61.7833 62° Northeast 560 644 33,000  Level Gander Center
Fri 01:10:31 AM 43.9167 -61.5833 71° East 560 644 33,000  Level Gander Center
Fri 01:11:31 AM 43.9500 -61.3667 78° East 560 644 33,000  Level Gander Center
Fri 01:17:05 AM 44.2240 -60.2350 78° East 559 643 33,000  Level FlightAware ADS-B
Fri 01:18:02 AM 44.2630 -60.0580 73° East 559 643 33,000  Level FlightAware ADS-B
Fri 01:18:41 AM 44.2950 -59.9010 74° East 559 643 33,000  Level FlightAware ADS-B
Fri 01:19:25 AM 44.3270 -59.7560 73° East 557 641 33,000  Level FlightAware ADS-B
Fri 01:20:05 AM 44.3560 -59.6140 74° East 558 642 33,000  Level FlightAware ADS-B
Fri 01:20:48 AM 44.3870 -59.4690 73° East 556 640 33,000  Level FlightAware ADS-B
Fri 01:21:29 AM 44.4170 -59.3210 74° East 555 639 33,000  Level FlightAware ADS-B
Fri 01:22:13 AM 44.4480 -59.1690 74° East 555 639 33,000  Level FlightAware ADS-B
Fri 01:22:55 AM 44.4780 -59.0250 74° East 554 638 33,000  Level FlightAware ADS-B
Fri 01:23:33 AM 44.5020 -58.9080 74° East 552 635 33,000  Level FlightAware ADS-B
Fri 01:24:15 AM 44.5330 -58.7530 74° East 550 633 33,000  Level FlightAware ADS-B
Fri 01:25:00 AM 44.5630 -58.6000 75° East 547 629 33,000  Level FlightAware ADS-B
Fri 01:25:54 AM 44.6000 -58.4190 74° East 545 627 33,000  Level FlightAware ADS-B
Fri 01:26:39 AM 44.6300 -58.2630 75° East 545 627 33,000  Level FlightAware ADS-B
Fri 01:27:19 AM 44.6560 -58.1300 75° East 546 628 33,000  Level FlightAware ADS-B
Fri 01:28:01 AM 44.6850 -57.9830 74° East 546 628 33,000  Level FlightAware ADS-B
Fri 01:28:45 AM 44.7130 -57.8320 75° East 548 631 33,000  Level FlightAware ADS-B
Fri 01:29:25 AM 44.7390 -57.6970 75° East 548 631 33,000  Level FlightAware ADS-B
Fri 01:30:05 AM 44.7660 -57.5560 75° East 548 631 33,000  Level FlightAware ADS-B
Fri 01:30:49 AM 44.7940 -57.4090 75° East 546 628 33,000  Level FlightAware ADS-B
Fri 01:31:32 AM 44.8180 -57.2790 75° East 546 628 33,000  Level FlightAware ADS-B
Fri 01:32:13 AM 44.8480 -57.1170 75° East 546 628 33,000  Level FlightAware ADS-B
Fri 01:32:51 AM 44.8700 -57.0000 75° East 547 629 33,000  Level FlightAware ADS-B
Fri 01:33:33 AM 44.8970 -56.8520 76° East 547 629 33,000  Level FlightAware ADS-B
Fri 01:34:21 AM 44.9240 -56.7110 75° East 547 629 33,000  Level FlightAware ADS-B
Fri 01:34:55 AM 44.9430 -56.6110 75° East 547 629 33,000  Level FlightAware ADS-B
Fri 01:35:40 AM 44.9680 -56.4790 75° East 547 629 33,000  Level FlightAware ADS-B
Fri 01:36:28 AM 44.9940 -56.3380 75° East 547 629 33,000  Level FlightAware ADS-B
Fri 01:37:04 AM 45.0140 -56.2320 75° East 547 629 33,000  Level FlightAware ADS-B
Fri 01:37:41 AM 45.0350 -56.1230 75° East 547 629 33,000  Level FlightAware ADS-B
Fri 01:38:30 AM 45.0620 -55.9790 75° East 547 629 33,000  Level FlightAware ADS-B
Fri 01:39:06 AM 45.0820 -55.8730 75° East 547 629 33,000  Level FlightAware ADS-B
Fri 01:39:55 AM 45.1100 -55.7290 75° East 547 629 33,000  Level FlightAware ADS-B
Fri 01:40:36 AM 45.1320 -55.6080 76° East 547 629 33,000  Level FlightAware ADS-B
Fri 01:41:12 AM 45.1520 -55.5020 75° East 547 629 33,000  Level FlightAware ADS-B
Fri 01:42:01 AM 45.1800 -55.3580 75° East 547 629 33,000  Level FlightAware ADS-B
Fri 01:42:37 AM 45.2000 -55.2520 75° East 547 629 33,000  Level FlightAware ADS-B
Fri 01:44:49 AM 45.3320 -54.4230 77° East 585 673 33,000  Level FlightAware ADS-B
Fri 01:46:22 AM 45.3850 -54.1160 76° East 589 678 33,000  Level FlightAware ADS-B
Fri 01:46:59 AM 45.4050 -53.9970 76° East 589 678 33,000 585 Level FlightAware ADS-B
Fri 01:47:44 AM 45.4410 -53.7810 77° East 584 672 33,800 585 Climbing FlightAware ADS-B
Fri 01:48:21 AM 45.4620 -53.6630 76° East 584 672 33,800  Level FlightAware ADS-B
Fri 01:49:09 AM 45.4880 -53.5110 76° East 584 672 33,800  Level FlightAware ADS-B
Fri 01:49:47 AM 45.5090 -53.3900 76° East 584 672 33,800  Level FlightAware ADS-B
Fri 01:50:33 AM 45.5350 -53.2440 76° East 584 672 33,800  Level FlightAware ADS-B
Fri 01:51:16 AM 45.5590 -53.1070 76° East 584 672 33,800  Level FlightAware ADS-B
Fri 01:51:52 AM 45.5790 -52.9920 76° East 584 672 33,800  Level FlightAware ADS-B
Fri 01:52:40 AM 45.6050 -52.8390 76° East 584 672 33,800  Level FlightAware ADS-B
Fri 01:53:16 AM 45.6250 -52.7250 76° East 584 672 33,800  Level FlightAware ADS-B
Fri 01:54:04 AM 45.6520 -52.5720 76° East 584 672 33,800  Level FlightAware ADS-B
Fri 01:54:40 AM 45.6720 -52.4570 76° East 584 672 33,800  Level FlightAware ADS-B
Fri 01:55:28 AM 45.6990 -52.3040 76° East 584 672 33,800  Level FlightAware ADS-B
Fri 01:56:04 AM 45.7190 -52.1890 76° East 584 672 33,800  Level FlightAware ADS-B
Fri 01:56:42 AM 45.7400 -52.0680 76° East 584 672 33,800 828 Level FlightAware ADS-B
Fri 01:57:31 AM 45.7667 -51.5167 76° East 580 667 35,000 661 Climbing Gander Center
Fri 01:58:31 AM 45.8000 -51.2833 78° East 590 679 35,000  Level Gander Center
Fri 01:59:31 AM 45.8333 -51.0833 76° East 580 667 35,000  Level Gander Center
Fri 02:00:31 AM 45.8667 -50.8333 79° East 580 667 35,000  Level Gander Center
Fri 02:01:31 AM 45.8833 -50.6167 84° East 580 667 35,000  Level Gander Center
Fri 02:02:31 AM 45.9167 -50.4000 77° East 580 667 35,000  Level Gander Center
Fri 02:03:31 AM 45.9500 -50.1667 78° East 580 667 35,000  Level Gander Center
Fri 02:04:31 AM 45.9833 -49.9167 79° East 580 667 35,000  Level Gander Center
Fri 02:05:31 AM 46.0333 -49.7167 70° East 580 667 35,000  Level Gander Center
Fri 02:06:31 AM 46.0833 -49.4833 73° East 590 679 35,000  Level Gander Center
Fri 02:07:09 AM 46.1167 -49.3667 68° East 580 667 35,000  Level Gander Center
Fri 02:08:00 AM 46.0000 -50.0000 70° East 581 669 35,000  Level ETMS Enhanced Traffic Management System
Fri 02:08:09 AM 46.1667 -49.1000 75° East 590 679 35,000  Level Gander Center
Fri 02:08:31 AM 46.2000 -49.0333 70° East 590 679 35,000  Level Gander Center
Fri 02:09:31 AM 46.2333 -48.8167 77° East 590 679 35,000  Level Gander Center
Fri 02:10:31 AM 46.3000 -48.5833 67° East 590 679 35,000  Level Gander Center
Fri 02:11:31 AM 46.3500 -48.3500 73° East 590 679 35,000  Level Gander Center
Fri 02:12:31 AM 46.4000 -48.1500 70° East 590 679 35,000  Level Gander Center
Fri 02:13:31 AM 46.4500 -47.9167 73° East 580 667 35,000  Level Gander Center
Fri 02:14:31 AM 46.5000 -47.6833 73° East 590 679 35,000  Level Gander Center
Fri 02:15:31 AM 46.5500 -47.4667 71° East 590 679 35,000  Level Gander Center
Fri 02:16:31 AM 46.6000 -47.2333 73° East 590 679 35,000  Level Gander Center
Fri 02:17:31 AM 46.6500 -47.0333 70° East 590 679 35,000  Level Gander Center
Fri 02:18:31 AM 46.7167 -46.7833 69° East 580 667 35,000  Level Gander Center
Fri 02:21:00 AM 46.8027 -46.4062 71° East  Level FlightAware Approximate
Fri 02:28:00 AM 47.1170 -44.9686 72° East  Level FlightAware Approximate
Fri 02:29:00 AM 47.1604 -44.7618 73° East  Level FlightAware Approximate
Fri 02:30:00 AM 47.2035 -44.5547 73° East  Level FlightAware Approximate
Fri 02:31:00 AM 47.2462 -44.3473 73° East  Level FlightAware Approximate
Fri 02:32:00 AM 47.2885 -44.1396 73° East  Level FlightAware Approximate
Fri 02:33:00 AM 47.3304 -43.9315 73° East  Level FlightAware Approximate
Fri 02:34:00 AM 47.3704 -43.7218 75° East  Level FlightAware Approximate
Fri 02:35:00 AM 47.4084 -43.5118 75° East  Level FlightAware Approximate
Fri 02:36:00 AM 47.4461 -43.3015 75° East  Level FlightAware Approximate
Fri 02:37:00 AM 47.4834 -43.0909 75° East  Level FlightAware Approximate
Fri 02:38:00 AM 47.5203 -42.8800 75° East  Level FlightAware Approximate
Fri 02:39:00 AM 47.5568 -42.6688 76° East  Level FlightAware Approximate
Fri 02:40:00 AM 47.5930 -42.4573 76° East  Level FlightAware Approximate
Fri 02:41:00 AM 47.6287 -42.2455 76° East  Level FlightAware Approximate
Fri 02:42:00 AM 47.6641 -42.0334 76° East  Level FlightAware Approximate
Fri 02:43:00 AM 47.6999 -41.8214 75° East  Level FlightAware Approximate
Fri 02:44:00 AM 47.7365 -41.6095 76° East  Level FlightAware Approximate
Fri 02:45:00 AM 47.7727 -41.3973 76° East  Level FlightAware Approximate
Fri 02:46:00 AM 47.8085 -41.1848 76° East  Level FlightAware Approximate
Fri 02:47:00 AM 47.8439 -40.9720 76° East  Level FlightAware Approximate
Fri 02:48:00 AM 47.8789 -40.7589 76° East  Level FlightAware Approximate
Fri 02:49:00 AM 47.9135 -40.5455 76° East  Level FlightAware Approximate
Fri 02:50:00 AM 47.9477 -40.3319 76° East  Level FlightAware Approximate
Fri 02:51:00 AM 47.9815 -40.1179 77° East  Level FlightAware Approximate
Fri 02:52:00 AM 48.0233 -39.9075 69° East  Level FlightAware Approximate
Fri 02:53:00 AM 48.0747 -39.7012 69° East  Level FlightAware Approximate
Fri 02:54:00 AM 48.1259 -39.4945 70° East  Level FlightAware Approximate
Fri 02:55:00 AM 48.1766 -39.2874 70° East  Level FlightAware Approximate
Fri 02:56:00 AM 48.2270 -39.0799 70° East  Level FlightAware Approximate
Fri 02:57:00 AM 48.2770 -38.8720 70° East  Level FlightAware Approximate
Fri 02:58:00 AM 48.3266 -38.6637 70° East  Level FlightAware Approximate
Fri 02:59:00 AM 48.3759 -38.4550 70° East  Level FlightAware Approximate
Fri 03:00:00 AM 48.4247 -38.2459 71° East  Level FlightAware Approximate
Fri 03:01:00 AM 48.4731 -38.0367 71° East  Level FlightAware Approximate
Fri 03:02:00 AM 48.5212 -37.8272 71° East  Level FlightAware Approximate
Fri 03:03:00 AM 48.5688 -37.6172 71° East  Level FlightAware Approximate
Fri 03:04:00 AM 48.6161 -37.4069 71° East  Level FlightAware Approximate
Fri 03:05:00 AM 48.6629 -37.1962 71° East  Level FlightAware Approximate
Fri 03:05:00 AM 48.0000 -40.0000 69° East 587 676 35,000  Level ETMS Enhanced Traffic Management System
Fri 03:06:00 AM 48.7094 -36.9851 71° East  Level FlightAware Approximate
Fri 03:07:00 AM 48.7555 -36.7735 72° East  Level FlightAware Approximate
Fri 03:08:00 AM 48.8013 -36.5617 72° East  Level FlightAware Approximate
Fri 03:09:00 AM 48.8466 -36.3494 72° East  Level FlightAware Approximate
Fri 03:10:00 AM 48.8916 -36.1368 72° East  Level FlightAware Approximate
Fri 03:11:00 AM 49.2491 -34.3836 74° East 587 676 35,000  Level FlightAware Transoceanic
Fri 03:12:00 AM 49.2951 -34.1437 74° East 587 676 35,000  Level FlightAware Transoceanic
Fri 03:13:00 AM 49.3407 -33.9034 74° East 587 676 35,000  Level FlightAware Transoceanic
Fri 03:14:00 AM 49.3857 -33.6626 74° East 587 676 35,000  Level FlightAware Transoceanic
Fri 03:15:00 AM 49.4302 -33.4214 74° East 587 676 35,000  Level FlightAware Transoceanic
Fri 03:16:00 AM 49.4742 -33.1797 74° East 587 676 35,000  Level FlightAware Transoceanic
Fri 03:17:00 AM 49.5177 -32.9376 75° East 587 676 35,000  Level FlightAware Transoceanic
Fri 03:18:00 AM 49.5608 -32.6950 75° East 587 676 35,000  Level FlightAware Transoceanic
Fri 03:19:00 AM 49.6033 -32.4521 75° East 587 676 35,000  Level FlightAware Transoceanic
Fri 03:20:00 AM 49.6452 -32.2087 75° East 587 676 35,000  Level FlightAware Transoceanic
Fri 03:21:00 AM 49.6867 -31.9649 75° East 587 676 35,000  Level FlightAware Transoceanic
Fri 03:22:00 AM 49.7277 -31.7207 76° East 587 676 35,000  Level FlightAware Transoceanic
Fri 03:23:00 AM 49.7682 -31.4761 76° East 587 676 35,000  Level FlightAware Transoceanic
Fri 03:24:00 AM 49.8081 -31.2311 76° East 587 676 35,000  Level FlightAware Transoceanic
Fri 03:25:00 AM 49.8475 -30.9856 76° East 587 676 35,000  Level FlightAware Transoceanic
Fri 03:26:00 AM 49.8864 -30.7398 76° East 587 676 35,000  Level FlightAware Transoceanic
Fri 03:27:00 AM 49.9248 -30.4936 76° East 587 676 35,000  Level FlightAware Transoceanic
Fri 03:28:00 AM 49.9627 -30.2470 77° East 587 676 35,000  Level FlightAware Transoceanic
Fri 03:29:00 AM 49.9962 -30.0254 77° East  Level FlightAware Approximate
Fri 03:30:00 AM 50.0293 -29.8034 77° East  Level FlightAware Approximate
Fri 03:31:00 AM 50.0245 -29.8284 77° East  Level FlightAware Approximate
Fri 03:32:00 AM 50.0558 -29.6057 78° East  Level FlightAware Approximate
Fri 03:33:00 AM 50.0867 -29.3828 78° East  Level FlightAware Approximate
Fri 03:34:00 AM 50.1172 -29.1595 78° East  Level FlightAware Approximate
Fri 03:35:00 AM 50.1472 -28.9360 78° East  Level FlightAware Approximate
Fri 03:36:00 AM 50.1768 -28.7122 78° East  Level FlightAware Approximate
Fri 03:37:00 AM 50.2060 -28.4881 78° East  Level FlightAware Approximate
Fri 03:38:00 AM 50.2348 -28.2637 79° East  Level FlightAware Approximate
Fri 03:39:00 AM 50.2631 -28.0391 79° East  Level FlightAware Approximate
Fri 03:40:00 AM 50.2910 -27.8142 79° East  Level FlightAware Approximate
Fri 03:41:00 AM 50.3184 -27.5890 79° East  Level FlightAware Approximate
Fri 03:42:00 AM 50.3455 -27.3636 79° East  Level FlightAware Approximate
Fri 03:43:00 AM 50.3720 -27.1379 79° East  Level FlightAware Approximate
Fri 03:44:00 AM 50.3982 -26.9120 80° East  Level FlightAware Approximate
Fri 03:45:00 AM 50.4239 -26.6858 80° East  Level FlightAware Approximate
Fri 03:46:00 AM 50.4492 -26.4594 80° East  Level FlightAware Approximate
Fri 03:47:00 AM 50.4741 -26.2328 80° East  Level FlightAware Approximate
Fri 03:48:00 AM 50.4988 -26.0060 80° East  Level FlightAware Approximate
Fri 03:49:00 AM 50.5231 -25.7789 80° East  Level FlightAware Approximate
Fri 03:50:00 AM 50.5470 -25.5516 81° East  Level FlightAware Approximate
Fri 03:51:00 AM 50.5704 -25.3242 81° East  Level FlightAware Approximate
Fri 03:52:00 AM 50.5932 -25.0972 81° East  Level FlightAware Approximate
Fri 03:53:00 AM 50.6157 -24.8701 81° East  Level FlightAware Approximate
Fri 03:54:00 AM 50.6377 -24.6427 81° East  Level FlightAware Approximate
Fri 03:55:00 AM 50.6592 -24.4152 81° East  Level FlightAware Approximate
Fri 03:56:00 AM 50.6804 -24.1874 82° East  Level FlightAware Approximate
Fri 03:57:00 AM 50.7010 -23.9594 82° East  Level FlightAware Approximate
Fri 03:58:00 AM 50.7214 -23.7313 82° East  Level FlightAware Approximate
Fri 03:59:00 AM 50.7420 -23.5031 82° East  Level FlightAware Approximate
Fri 04:00:00 AM 50.7621 -23.2747 82° East  Level FlightAware Approximate
Fri 04:01:00 AM 50.7818 -23.0461 82° East  Level FlightAware Approximate
Fri 04:02:00 AM 50.8010 -22.8173 82° East  Level FlightAware Approximate
Fri 04:03:00 AM 50.8198 -22.5883 83° East  Level FlightAware Approximate
Fri 04:04:00 AM 50.8381 -22.3592 83° East  Level FlightAware Approximate
Fri 04:05:00 AM 50.8560 -22.1299 83° East  Level FlightAware Approximate
Fri 04:06:00 AM 50.8734 -21.9004 83° East  Level FlightAware Approximate
Fri 04:07:00 AM 50.8904 -21.6707 83° East  Level FlightAware Approximate
Fri 04:08:00 AM 50.9069 -21.4408 83° East  Level FlightAware Approximate
Fri 04:09:00 AM 50.9230 -21.2108 84° East  Level FlightAware Approximate
Fri 04:10:00 AM 50.9386 -20.9807 84° East  Level FlightAware Approximate
Fri 04:11:00 AM 50.9538 -20.7496 84° East  Level FlightAware Approximate
Fri 04:12:00 AM 50.9686 -20.5183 84° East  Level FlightAware Approximate
Fri 04:13:00 AM 50.9829 -20.2869 84° East  Level FlightAware Approximate
Fri 04:14:00 AM 50.9968 -20.0553 84° East  Level FlightAware Approximate
Fri 04:15:00 AM 50.9808 -19.8256 100° East  Level FlightAware Approximate
Fri 04:16:00 AM 50.9551 -19.5968 100° East  Level FlightAware Approximate
Fri 04:17:00 AM 50.9289 -19.3681 100° East  Level FlightAware Approximate
Fri 04:18:00 AM 50.9024 -19.1398 100° East  Level FlightAware Approximate
Fri 04:19:00 AM 50.8753 -18.9117 101° East  Level FlightAware Approximate
Fri 04:20:00 AM 50.8479 -18.6838 101° East  Level FlightAware Approximate
Fri 04:21:00 AM 50.8199 -18.4563 101° East  Level FlightAware Approximate
Fri 04:22:00 AM 50.7916 -18.2290 101° East  Level FlightAware Approximate
Fri 04:23:00 AM 50.7628 -18.0020 101° East  Level FlightAware Approximate
Fri 04:24:00 AM 50.7336 -17.7752 101° East  Level FlightAware Approximate
Fri 04:25:00 AM 50.7039 -17.5488 102° East  Level FlightAware Approximate
Fri 04:26:00 AM 50.6738 -17.3226 102° East  Level FlightAware Approximate
Fri 04:27:00 AM 50.6432 -17.0968 102° East  Level FlightAware Approximate
Fri 04:28:00 AM 50.6122 -16.8712 102° East  Level FlightAware Approximate
Fri 04:29:00 AM 50.5808 -16.6459 102° East  Level FlightAware Approximate
Fri 04:30:00 AM 50.5490 -16.4209 102° East  Level FlightAware Approximate
Fri 04:31:00 AM 50.5167 -16.1963 103° East  Level FlightAware Approximate
Fri 04:32:00 AM 50.4841 -15.9727 103° East  Level FlightAware Approximate
Fri 04:33:00 AM 50.4510 -15.7494 103° East  Level FlightAware Approximate
Fri 04:34:00 AM 50.4176 -15.5265 103° East  Level FlightAware Approximate
Fri 04:35:00 AM 50.3837 -15.3039 103° East  Level FlightAware Approximate
Fri 04:36:00 AM 50.3494 -15.0816 104° East  Level FlightAware Approximate
Fri 04:37:00 AM 50.3147 -14.8596 104° East  Level FlightAware Approximate
Fri 04:38:00 AM 50.2795 -14.6379 104° East  Level FlightAware Approximate
Fri 04:39:00 AM 50.2439 -14.4166 104° East  Level FlightAware Approximate
Fri 04:40:00 AM 50.2080 -14.1956 104° East  Level FlightAware Approximate
Fri 04:41:00 AM 50.1715 -13.9749 104° East  Level FlightAware Approximate
Fri 04:42:00 AM 50.1347 -13.7546 105° East  Level FlightAware Approximate
Fri 04:43:00 AM 50.0975 -13.5346 105° East  Level FlightAware Approximate
Fri 04:44:00 AM 50.0598 -13.3150 105° East  Level FlightAware Approximate
Fri 04:45:00 AM 50.0217 -13.0957 105° East  Level FlightAware Approximate
Fri 04:45:08 AM 50.2620 -11.0960 105° East 579 666 35,000  Level FlightAware ADS-B
Fri 04:46:00 AM 49.9831 -12.8760 105° East  Level FlightAware Approximate
Fri 04:46:05 AM 50.2130 -10.8930 111° Southeast 577 664 35,000  Level FlightAware ADS-B
Fri 04:46:58 AM 50.1580 -10.6630 110° East 577 664 35,000  Level FlightAware ADS-B
Fri 04:47:42 AM 50.1170 -10.4960 111° Southeast 576 663 35,000  Level FlightAware ADS-B
Fri 04:48:24 AM 50.0770 -10.3340 111° Southeast 575 662 35,000  Level FlightAware ADS-B
Fri 04:49:04 AM 50.0380 -10.1760 111° Southeast 575 662 35,000  Level FlightAware ADS-B
Fri 04:49:48 AM 49.9960 -10.0060 111° Southeast 574 661 35,000  Level FlightAware ADS-B
Fri 04:50:26 AM 49.9590 -9.8600 111° Southeast 575 662 35,000  Level FlightAware ADS-B
Fri 04:51:22 AM 49.9060 -9.6500 111° Southeast 573 659 35,000  Level FlightAware ADS-B
Fri 04:52:02 AM 49.8670 -9.4970 112° Southeast 574 661 35,000  Level FlightAware ADS-B
Fri 04:52:46 AM 49.8240 -9.3330 112° Southeast 574 661 35,000  Level FlightAware ADS-B
Fri 04:53:28 AM 49.7820 -9.1650 111° Southeast 576 663 35,000  Level FlightAware ADS-B
Fri 04:54:06 AM 49.7440 -9.0210 112° Southeast 575 662 35,000  Level FlightAware ADS-B
Fri 04:54:44 AM 49.7050 -8.8738 112° Southeast 496 571 35,000  Level FlightAware UK
Fri 04:54:50 AM 49.7000 -8.8530 112° Southeast 576 663 35,000  Level FlightAware ADS-B
Fri 04:55:33 AM 49.6590 -8.7010 113° Southeast 576 663 35,000  Level FlightAware ADS-B
Fri 04:56:14 AM 49.6147 -8.5319 113° Southeast 496 571 35,000  Level FlightAware UK
Fri 04:56:17 AM 49.6350 -8.6100 113° Southeast 576 663 35,000  Level FlightAware ADS-B
Fri 04:56:56 AM 49.5730 -8.3790 112° Southeast 575 662 35,000  Level FlightAware ADS-B
Fri 04:57:38 AM 49.5300 -8.2160 112° Southeast 576 663 35,000  Level FlightAware ADS-B
Fri 04:58:14 AM 49.4924 -8.0781 112° Southeast 498 573 35,000  Level FlightAware UK
Fri 04:58:22 AM 49.4850 -8.0540 112° Southeast 576 663 35,000  Level FlightAware ADS-B
Fri 04:59:04 AM 49.4420 -7.8960 113° Southeast 575 662 35,000  Level FlightAware ADS-B
Fri 04:59:44 AM 49.3992 -7.7386 113° Southeast 498 573 35,000  Level FlightAware UK
Fri 04:59:44 AM 49.4000 -7.7420 113° Southeast 574 661 35,000  Level FlightAware ADS-B
Fri 05:00:14 AM 49.3680 -7.6261 113° Southeast 498 573 35,000  Level FlightAware UK
Fri 05:00:41 AM 49.3420 -7.5320 113° Southeast 573 659 35,000  Level FlightAware ADS-B
Fri 05:01:14 AM 49.3053 -7.4022 113° Southeast 498 573 35,000  Level FlightAware UK
Fri 05:01:20 AM 49.3000 -7.3870 113° Southeast 578 665 35,000  Level FlightAware ADS-B
Fri 05:02:06 AM 49.2420 -7.2240 119° Southeast 583 671 35,000  Level FlightAware ADS-B
Fri 05:02:42 AM 49.1920 -7.0880 119° Southeast 583 671 35,000  Level FlightAware ADS-B
Fri 05:02:44 AM 49.1886 -7.0781 119° Southeast 498 573 35,000  Level FlightAware UK
Fri 05:03:14 AM 49.1484 -6.9710 119° Southeast 498 573 35,000  Level FlightAware UK
Fri 05:03:31 AM 49.1280 -6.9170 119° Southeast 581 669 35,000  Level FlightAware ADS-B
Fri 05:04:12 AM 49.0730 -6.7710 120° Southeast 579 666 35,000  Level FlightAware ADS-B
Fri 05:04:45 AM 49.0287 -6.6502 120° Southeast 494 568 35,000  Level FlightAware UK
Fri 05:04:54 AM 49.0180 -6.6220 120° Southeast 579 666 35,000  Level FlightAware ADS-B
Fri 05:05:30 AM 48.9700 -6.4950 120° Southeast 578 665 35,000  Level FlightAware ADS-B
Fri 05:06:15 AM 48.9095 -6.3332 120° Southeast 498 573 35,000  Level FlightAware UK
Fri 05:06:18 AM 48.9050 -6.3220 120° Southeast 577 664 35,000  Level FlightAware ADS-B
Fri 05:06:57 AM 48.8550 -6.1900 120° Southeast 575 662 35,000  Level FlightAware ADS-B
Fri 05:07:39 AM 48.7990 -6.0440 120° Southeast 571 657 35,000  Level FlightAware ADS-B
Fri 05:08:09 AM 48.7575 -5.9357 120° Southeast 502 578 35,000  Level FlightAware UK
Fri 05:08:24 AM 48.7380 -5.8860 120° Southeast 563 648 35,000  Level FlightAware ADS-B
Fri 05:09:06 AM 48.6840 -5.7470 120° Southeast 558 642 35,000  Level FlightAware ADS-B
Fri 05:09:45 AM 48.6321 -5.6128 120° Southeast 494 568 35,000  Level FlightAware UK
Fri 05:09:46 AM 48.6310 -5.6140 120° Southeast 553 636 35,000  Level FlightAware ADS-B
Fri 05:10:28 AM 48.5810 -5.4810 120° Southeast 551 634 35,000  Level FlightAware ADS-B
Fri 05:11:15 AM 48.5155 -5.3151 120° Southeast 492 566 35,000  Level FlightAware UK
Fri 05:11:27 AM 48.4990 -5.2770 120° Southeast 547 629 35,000  Level FlightAware ADS-B
Fri 05:12:05 AM 48.4660 -5.1920 120° Southeast 546 628 35,000  Level FlightAware ADS-B
Fri 05:12:45 AM 48.3991 -5.0214 120° Southeast 496 571 35,000  Level FlightAware UK
Fri 05:12:50 AM 48.3920 -5.0060 120° Southeast 543 625 35,000  Level FlightAware ADS-B
Fri 05:13:27 AM 48.3450 -4.8900 121° Southeast 541 623 35,000  Level FlightAware ADS-B
Fri 05:14:03 AM 48.2983 -4.7704 121° Southeast 496 571 35,000  Level FlightAware UK
Fri 05:14:15 AM 48.2840 -4.7360 121° Southeast 539 620 35,000  Level FlightAware ADS-B
Fri 05:14:51 AM 48.2363 -4.6170 121° Southeast 498 573 35,000  Level FlightAware UK
Fri 05:14:55 AM 48.2320 -4.6090 121° Southeast 537 618 35,000  Level FlightAware ADS-B
Fri 05:15:37 AM 48.1770 -4.4720 121° Southeast 535 616 35,000  Level FlightAware ADS-B
Fri 05:16:17 AM 48.1260 -4.3490 122° Southeast 533 613 35,000  Level FlightAware ADS-B
Fri 05:16:59 AM 48.0720 -4.2140 121° Southeast 533 613 35,000  Level FlightAware ADS-B
Fri 05:17:45 AM 48.0120 -4.0700 122° Southeast 534 615 35,000  Level FlightAware ADS-B
Fri 05:18:25 AM 47.9600 -3.9450 122° Southeast 530 610 35,000  Level FlightAware ADS-B
Fri 05:19:02 AM 47.9130 -3.8340 122° Southeast 527 606 35,000  Level FlightAware ADS-B
Fri 05:19:50 AM 47.8520 -3.6870 122° Southeast 522 601 35,000  Level FlightAware ADS-B
Fri 05:20:30 AM 47.8000 -3.5650 122° Southeast 521 600 35,000  Level FlightAware ADS-B
Fri 05:21:12 AM 47.7460 -3.4350 122° Southeast 519 597 35,000  Level FlightAware ADS-B
Fri 05:21:54 AM 47.6920 -3.3090 122° Southeast 519 597 35,000  Level FlightAware ADS-B
Fri 05:22:36 AM 47.6390 -3.1850 122° Southeast 519 597 35,000  Level FlightAware ADS-B
Fri 05:23:18 AM 47.5850 -3.0590 122° Southeast 519 597 35,000  Level FlightAware ADS-B
Fri 05:24:00 AM 47.5320 -2.9340 122° Southeast 519 597 35,000  Level FlightAware ADS-B
Fri 05:24:38 AM 47.4820 -2.8200 123° Southeast 518 596 35,000  Level FlightAware ADS-B
Fri 05:25:24 AM 47.4220 -2.6810 123° Southeast 517 595 35,000  Level FlightAware ADS-B
Fri 05:26:07 AM 47.3730 -2.5680 123° Southeast 515 593 35,000  Level FlightAware ADS-B
Fri 05:26:44 AM 47.3200 -2.4470 123° Southeast 513 590 35,000  Level FlightAware ADS-B
Fri 05:27:32 AM 47.2570 -2.3040 123° Southeast 511 588 35,000  Level FlightAware ADS-B
Fri 05:28:14 AM 47.2040 -2.1840 123° Southeast 511 588 35,000  Level FlightAware ADS-B
Fri 05:28:56 AM 47.1510 -2.0580 122° Southeast 512 589 35,000  Level FlightAware ADS-B
Fri 05:29:38 AM 47.0980 -1.9380 123° Southeast 512 589 35,000  Level FlightAware ADS-B
Fri 05:30:34 AM 47.0270 -1.7730 122° Southeast 513 590 35,000  Level FlightAware ADS-B
Fri 05:31:16 AM 46.9750 -1.6530 122° Southeast 511 588 35,000  Level FlightAware ADS-B
Fri 05:31:56 AM 46.9290 -1.5410 121° Southeast 512 589 35,000  Level FlightAware ADS-B
Fri 05:32:39 AM 46.8710 -1.4020 121° Southeast 511 588 35,000  Level FlightAware ADS-B
Fri 05:33:21 AM 46.8200 -1.2790 121° Southeast 508 585 35,000  Level FlightAware ADS-B
Fri 05:34:02 AM 46.7740 -1.1720 122° Southeast 502 578 35,000  Level FlightAware ADS-B
Fri 05:34:45 AM 46.7110 -1.0470 126° Southeast 497 572 35,000  Level FlightAware ADS-B
Fri 05:35:25 AM 46.6580 -0.9390 126° Southeast 495 570 35,000 370 Level FlightAware ADS-B
Fri 05:36:06 AM 46.6060 -0.8320 125° Southeast 498 573 35,500 815 Climbing FlightAware ADS-B
Fri 05:36:46 AM 46.5560 -0.7280 125° Southeast 502 578 36,100 918 Climbing FlightAware ADS-B
Fri 05:37:31 AM 46.4970 -0.6070 125° Southeast 502 578 36,800 635 Climbing FlightAware ADS-B
Fri 05:38:11 AM 46.4400 -0.4910 125° Southeast 502 578 37,000 141 Climbing FlightAware ADS-B
Fri 05:38:56 AM 46.3820 -0.3740 126° Southeast 501 577 37,000  Level FlightAware ADS-B
Fri 05:39:36 AM 46.3240 -0.2560 125° Southeast 501 577 37,000  Level FlightAware ADS-B
Fri 05:40:21 AM 46.2730 -0.1310 121° Southeast 505 581 37,000  Level FlightAware ADS-B
Fri 05:41:18 AM 46.2480 -0.0360 111° Southeast 506 582 37,000  Level FlightAware ADS-B
Fri 05:41:56 AM 46.2250 0.1870 98° East 519 597 37,000  Level FlightAware ADS-B
Fri 05:42:41 AM 46.2210 0.3430 92° East 520 598 37,000  Level FlightAware ADS-B
Fri 05:43:36 AM 46.2150 0.5330 93° East 521 600 37,000  Level FlightAware ADS-B
Fri 05:44:16 AM 46.2120 0.6730 92° East 521 600 37,000  Level FlightAware ADS-B
Fri 05:45:01 AM 46.2090 0.8180 92° East 520 598 37,000  Level FlightAware ADS-B
Fri 05:45:41 AM 46.2050 0.9630 92° East 520 598 37,000  Level FlightAware ADS-B
Fri 05:46:21 AM 46.2000 1.1020 93° East 521 600 37,000  Level FlightAware ADS-B
Fri 05:47:04 AM 46.1950 1.2330 93° East 521 600 37,000  Level FlightAware ADS-B
Fri 05:47:50 AM 46.1900 1.3800 93° East 521 600 37,000  Level FlightAware ADS-B
Fri 05:48:34 AM 46.1770 1.5500 96° East 520 598 37,000  Level FlightAware ADS-B
Fri 05:49:11 AM 46.1160 1.6660 127° Southeast 505 581 37,000  Level FlightAware ADS-B
Fri 05:49:56 AM 46.0650 1.7940 120° Southeast 501 577 37,000  Level FlightAware ADS-B
Fri 05:50:46 AM 46.0110 1.9320 119° Southeast 498 573 37,000  Level FlightAware ADS-B
Fri 05:51:31 AM 45.9550 2.0720 120° Southeast 493 567 37,000  Level FlightAware ADS-B
Fri 05:52:13 AM 45.9070 2.1940 119° Southeast 490 564 37,000  Level FlightAware ADS-B
Fri 05:52:59 AM 45.8550 2.3230 120° Southeast 488 562 37,000  Level FlightAware ADS-B
Fri 05:53:34 AM 45.8150 2.4240 120° Southeast 488 562 37,000  Level FlightAware ADS-B
Fri 05:54:20 AM 45.7650 2.5500 120° Southeast 488 562 37,000  Level FlightAware ADS-B
Fri 05:55:04 AM 45.7150 2.6730 120° Southeast 488 562 37,000  Level FlightAware ADS-B
Fri 05:55:45 AM 45.6680 2.7880 120° Southeast 488 562 37,000  Level FlightAware ADS-B
Fri 05:56:24 AM 45.6240 2.8970 120° Southeast 489 563 37,000  Level FlightAware ADS-B
Fri 05:57:10 AM 45.5710 3.0250 121° Southeast 490 564 37,000  Level FlightAware ADS-B
Fri 05:57:52 AM 45.5250 3.1390 120° Southeast 489 563 37,000  Level FlightAware ADS-B
Fri 05:58:31 AM 45.4810 3.2450 121° Southeast 489 563 37,000  Level FlightAware ADS-B
Fri 05:59:11 AM 45.4370 3.3530 120° Southeast 489 563 37,000  Level FlightAware ADS-B
Fri 06:00:06 AM 45.3720 3.5080 121° Southeast 489 563 37,000  Level FlightAware ADS-B
Fri 06:01:12 AM 45.3310 3.6070 120° Southeast 485 558 37,000  Level FlightAware ADS-B
Fri 06:01:52 AM 45.2480 3.8040 121° Southeast 491 565 37,000  Level FlightAware ADS-B
Fri 06:02:31 AM 45.2010 3.9140 121° Southeast 492 566 37,000  Level FlightAware ADS-B
Fri 06:03:26 AM 45.1420 4.0570 120° Southeast 492 566 37,000  Level FlightAware ADS-B
Fri 06:04:12 AM 45.0970 4.1660 120° Southeast 492 566 37,000  Level FlightAware ADS-B
Fri 06:04:51 AM 45.0390 4.2950 122° Southeast 488 562 37,000  Level FlightAware ADS-B
Fri 06:06:05 AM 44.9730 4.4480 121° Southeast 492 566 37,000  Level FlightAware ADS-B
Fri 06:06:40 AM 44.9100 4.5940 121° Southeast 491 565 37,000  Level FlightAware ADS-B
Fri 06:07:25 AM 44.8550 4.7190 122° Southeast 492 566 37,000  Level FlightAware ADS-B
Fri 06:08:05 AM 44.8060 4.8310 122° Southeast 487 560 37,000  Level FlightAware ADS-B
Fri 06:08:47 AM 44.7560 4.9330 125° Southeast 483 556 37,000  Level FlightAware ADS-B
Fri 06:09:35 AM 44.6890 5.0650 125° Southeast 484 557 37,000  Level FlightAware ADS-B
Fri 06:10:30 AM 44.6180 5.2080 125° Southeast 485 558 37,000  Level FlightAware ADS-B
Fri 06:11:12 AM 44.5670 5.3100 125° Southeast 486 559 37,000  Level FlightAware ADS-B
Fri 06:12:22 AM 44.4760 5.4920 125° Southeast 487 560 37,000  Level FlightAware ADS-B
Fri 06:13:00 AM 44.4240 5.5960 125° Southeast 488 562 37,000  Level FlightAware ADS-B
Fri 06:13:45 AM 44.3620 5.7160 126° Southeast 490 564 37,000  Level FlightAware ADS-B
Fri 06:14:25 AM 44.3120 5.8180 124° Southeast 496 571 37,000  Level FlightAware ADS-B
Fri 06:15:10 AM 44.2530 5.9400 124° Southeast 499 574 37,000  Level FlightAware ADS-B
Fri 06:15:50 AM 44.2050 6.0470 122° Southeast 498 573 37,000  Level FlightAware ADS-B
Fri 06:16:35 AM 44.1490 6.1720 122° Southeast 493 567 37,000  Level FlightAware ADS-B
Fri 06:17:10 AM 44.1090 6.2620 122° Southeast 493 567 37,000  Level FlightAware ADS-B
Fri 06:17:50 AM 44.0590 6.3720 122° Southeast 494 568 37,000  Level FlightAware ADS-B
Fri 06:18:40 AM 43.9970 6.5040 123° Southeast 494 568 37,000  Level FlightAware ADS-B
Fri 06:19:18 AM 43.9560 6.5960 122° Southeast 495 570 37,000  Level FlightAware ADS-B
Fri 06:20:05 AM 43.8900 6.7390 123° Southeast 500 575 37,000  Level FlightAware ADS-B
Fri 06:20:59 AM 43.8340 6.8570 123° Southeast 500 575 37,000  Level FlightAware ADS-B
Fri 06:21:35 AM 43.7760 6.9810 123° Southeast 501 577 37,000  Level FlightAware ADS-B
Fri 06:22:20 AM 43.7250 7.0940 122° Southeast 502 578 37,000  Level FlightAware ADS-B
Fri 06:23:00 AM 43.6710 7.2070 123° Southeast 503 579 37,000  Level FlightAware ADS-B
Fri 06:23:45 AM 43.6150 7.3290 122° Southeast 504 580 37,000  Level FlightAware ADS-B
Fri 06:24:30 AM 43.5570 7.4530 123° Southeast 502 578 37,000  Level FlightAware ADS-B
Fri 06:25:10 AM 43.5080 7.5570 123° Southeast 502 578 37,000  Level FlightAware ADS-B
Fri 06:25:55 AM 43.4510 7.6770 123° Southeast 502 578 37,000  Level FlightAware ADS-B
Fri 06:26:35 AM 43.4020 7.7790 123° Southeast 501 577 37,000  Level FlightAware ADS-B
Fri 06:27:24 AM 43.3360 7.9190 123° Southeast 497 572 37,000  Level FlightAware ADS-B
Fri 06:28:06 AM 43.2840 8.0270 123° Southeast 496 571 37,000  Level FlightAware ADS-B
Fri 06:28:48 AM 43.2300 8.1380 124° Southeast 496 571 37,000  Level FlightAware ADS-B
Fri 06:29:32 AM 43.1750 8.2560 123° Southeast 498 573 37,000  Level FlightAware ADS-B
Fri 06:30:12 AM 43.1250 8.3590 124° Southeast 500 575 37,000  Level FlightAware ADS-B
Fri 06:30:54 AM 43.0700 8.4720 124° Southeast 500 575 37,000  Level FlightAware ADS-B
Fri 06:31:36 AM 43.0160 8.5800 124° Southeast 502 578 37,000  Level FlightAware ADS-B
Fri 06:32:20 AM 42.9590 8.6960 124° Southeast 503 579 37,000  Level FlightAware ADS-B
Fri 06:33:03 AM 42.9030 8.8130 123° Southeast 503 579 37,000  Level FlightAware ADS-B
Fri 06:33:42 AM 42.8550 8.9100 124° Southeast 505 581 37,000  Level FlightAware ADS-B
Fri 06:34:24 AM 42.7980 9.0240 124° Southeast 506 582 37,000  Level FlightAware ADS-B
Fri 06:35:08 AM 42.7400 9.1420 124° Southeast 507 583 37,000  Level FlightAware ADS-B
Fri 06:35:50 AM 42.6850 9.2530 124° Southeast 508 585 37,000  Level FlightAware ADS-B
Fri 06:36:42 AM 42.6160 9.3900 124° Southeast 508 585 37,000  Level FlightAware ADS-B
Fri 06:37:28 AM 42.5690 9.5190 116° Southeast 518 596 37,000  Level FlightAware ADS-B
Fri 06:38:10 AM 42.5320 9.6500 111° Southeast 517 595 37,000  Level FlightAware ADS-B
Fri 06:38:50 AM 42.4990 9.7640 111° Southeast 517 595 37,000  Level FlightAware ADS-B
Fri 06:39:30 AM 42.4660 9.8860 110° East 517 595 37,000  Level FlightAware ADS-B
Fri 06:40:14 AM 42.4290 10.0220 110° East 517 595 37,000  Level FlightAware ADS-B
Fri 06:40:58 AM 42.3920 10.1590 110° East 516 594 37,000  Level FlightAware ADS-B
Fri 06:41:34 AM 42.3620 10.2680 110° East 518 596 37,000  Level FlightAware ADS-B
Fri 06:42:20 AM 42.3240 10.4070 110° East 518 596 37,000  Level FlightAware ADS-B
Fri 06:43:00 AM 42.2910 10.5250 111° Southeast 518 596 37,000  Level FlightAware ADS-B
Fri 06:43:56 AM 42.2440 10.6940 111° Southeast 517 595 37,000  Level FlightAware ADS-B
Fri 06:44:41 AM 42.2070 10.8300 110° East 516 594 37,000  Level FlightAware ADS-B
Fri 06:45:21 AM 42.1740 10.9470 111° Southeast 516 594 37,000  Level FlightAware ADS-B
Fri 06:46:01 AM 42.1400 11.0670 111° Southeast 517 595 37,000  Level FlightAware ADS-B
Fri 06:46:47 AM 42.1010 11.2060 111° Southeast 515 593 37,000  Level FlightAware ADS-B
Fri 06:47:26 AM 42.0660 11.3250 112° Southeast 515 593 37,000  Level FlightAware ADS-B
Fri 06:48:06 AM 42.0150 11.4290 123° Southeast 503 579 37,000  Level FlightAware ADS-B
Fri 06:48:51 AM 41.9430 11.5350 132° Southeast 502 578 37,000  Level FlightAware ADS-B
Fri 06:49:31 AM 41.8770 11.6260 134° Southeast 508 585 37,000  Level FlightAware ADS-B
Fri 06:50:12 AM 41.8130 11.7150 134° Southeast 508 585 37,000  Level FlightAware ADS-B
Fri 06:50:39 AM 41.7880 11.7510 133° Southeast 508 585 37,000  Level FlightAware ADS-B
Fri 06:51:21 AM 41.6980 11.8770 134° Southeast 510 587 37,000  Level FlightAware ADS-B
Fri 06:52:06 AM 41.6250 11.9790 134° Southeast 510 587 37,000  Level FlightAware ADS-B
Fri 06:52:51 AM 41.5520 12.0820 133° Southeast 511 588 37,000  Level FlightAware ADS-B
Fri 06:53:26 AM 41.4940 12.1610 134° Southeast 512 589 37,000  Level FlightAware ADS-B
Fri 06:54:16 AM 41.4110 12.2750 134° Southeast 513 590 37,000  Level FlightAware ADS-B
Fri 06:54:49 AM 41.3730 12.3270 134° Southeast 514 592 37,000  Level FlightAware ADS-B
Fri 06:56:09 AM 41.2630 12.4850 133° Southeast 514 592 37,000  Level FlightAware ADS-B
Fri 06:56:48 AM 41.1600 12.6190 136° Southeast 518 596 37,000  Level FlightAware ADS-B
Fri 06:57:32 AM 41.0850 12.7210 134° Southeast 517 595 37,000  Level FlightAware ADS-B
Fri 06:58:12 AM 41.0190 12.8120 134° Southeast 518 596 37,000  Level FlightAware ADS-B
Fri 06:58:54 AM 40.9490 12.9080 134° Southeast 519 597 37,000  Level FlightAware ADS-B
Fri 06:59:38 AM 40.8840 13.0220 127° Southeast 527 606 37,000  Level FlightAware ADS-B
Fri 07:00:14 AM 40.8400 13.1190 121° Southeast 527 606 37,000  Level FlightAware ADS-B
Fri 07:01:02 AM 40.7820 13.2530 120° Southeast 527 606 37,000  Level FlightAware ADS-B
Fri 07:01:42 AM 40.7340 13.3650 119° Southeast 527 606 37,000  Level FlightAware ADS-B
Fri 07:02:24 AM 40.6820 13.4840 120° Southeast 527 606 37,000  Level FlightAware ADS-B
Fri 07:03:19 AM 40.6140 13.6370 120° Southeast 529 609 37,000  Level FlightAware ADS-B
Fri 07:04:03 AM 40.5590 13.7590 121° Southeast 529 609 37,000  Level FlightAware ADS-B
Fri 07:04:47 AM 40.5060 13.8780 120° Southeast 528 608 37,000  Level FlightAware ADS-B
Fri 07:05:29 AM 40.4530 13.9940 121° Southeast 528 608 37,000  Level FlightAware ADS-B
Fri 07:06:11 AM 40.4020 14.1100 120° Southeast 529 609 37,000  Level FlightAware ADS-B
Fri 07:06:48 AM 40.3560 14.2130 120° Southeast 529 609 37,000  Level FlightAware ADS-B
Fri 07:07:34 AM 40.2990 14.3390 121° Southeast 528 608 37,000  Level FlightAware ADS-B
Fri 07:08:18 AM 40.2430 14.4600 121° Southeast 528 608 37,000  Level FlightAware ADS-B
Fri 07:08:58 AM 40.1920 14.5720 121° Southeast 527 606 37,000  Level FlightAware ADS-B
Fri 07:09:40 AM 40.1400 14.6870 121° Southeast 528 608 37,000  Level FlightAware ADS-B
Fri 07:10:22 AM 40.0870 14.8020 121° Southeast 529 609 37,000  Level FlightAware ADS-B
Fri 07:11:47 AM 40.0310 14.9220 121° Southeast 529 609 37,000  Level FlightAware ADS-B
Fri 07:12:26 AM 39.9300 15.1390 121° Southeast 531 611 37,000  Level FlightAware ADS-B
Fri 07:13:08 AM 39.8770 15.2540 121° Southeast 532 612 37,000  Level FlightAware ADS-B
Fri 07:13:52 AM 39.8190 15.3770 122° Southeast 533 613 37,000  Level FlightAware ADS-B
Fri 07:14:33 AM 39.7690 15.4830 122° Southeast 534 615 37,000  Level FlightAware ADS-B
Fri 07:15:08 AM 39.7220 15.5820 122° Southeast 535 616 37,000  Level FlightAware ADS-B
Fri 07:15:56 AM 39.6600 15.7130 122° Southeast 535 616 37,000  Level FlightAware ADS-B
Fri 07:16:34 AM 39.6290 15.7790 121° Southeast 531 611 37,000  Level FlightAware ADS-B
Fri 07:17:15 AM 39.5570 15.9290 122° Southeast 532 612 37,000  Level FlightAware ADS-B
Fri 07:18:02 AM 39.5000 16.0600 119° Southeast 537 618 37,000  Level FlightAware ADS-B
Fri 07:18:44 AM 39.4630 16.1660 114° Southeast 537 618 37,000  Level FlightAware ADS-B
Fri 07:19:26 AM 39.4170 16.3070 113° Southeast 537 618 37,000  Level FlightAware ADS-B
Fri 07:20:10 AM 39.3740 16.4400 113° Southeast 536 617 37,000  Level FlightAware ADS-B
Fri 07:21:20 AM 39.3540 16.4990 114° Southeast 536 617 37,000  Level FlightAware ADS-B
Fri 07:22:01 AM 39.2690 16.7640 112° Southeast 532 612 37,000  Level FlightAware ADS-B
Fri 07:22:41 AM 39.2300 16.8840 113° Southeast 531 611 37,000  Level FlightAware ADS-B
Fri 07:23:23 AM 39.1920 17.0010 113° Southeast 531 611 37,000  Level FlightAware ADS-B
Fri 07:24:02 AM 39.1660 17.0830 112° Southeast 532 612 37,000  Level FlightAware ADS-B
Fri 07:24:51 AM 39.1200 17.2220 113° Southeast 532 612 37,000  Level FlightAware ADS-B
Fri 07:25:31 AM 39.0790 17.3460 113° Southeast 532 612 37,000  Level FlightAware ADS-B
Fri 07:26:11 AM 39.0490 17.4400 112° Southeast 524 603 37,000  Level FlightAware ADS-B
Fri 07:26:52 AM 39.0040 17.5740 113° Southeast 524 603 37,000  Level FlightAware ADS-B
Fri 07:27:32 AM 38.9710 17.6740 113° Southeast 522 601 37,000  Level FlightAware ADS-B
Fri 07:28:16 AM 38.9290 17.8000 113° Southeast 522 601 37,000  Level FlightAware ADS-B
Fri 07:28:56 AM 38.8870 17.9220 114° Southeast 521 600 37,000  Level FlightAware ADS-B
Fri 07:29:37 AM 38.8490 18.0380 113° Southeast 521 600 37,000  Level FlightAware ADS-B
Fri 07:31:42 AM 38.7410 18.3600 113° Southeast 521 600 37,000  Level FlightAware ADS-B
Fri 07:32:23 AM 38.6870 18.5110 115° Southeast 521 600 37,000  Level FlightAware ADS-B
Fri 07:33:11 AM 38.6410 18.6460 114° Southeast 521 600 37,000  Level FlightAware ADS-B
Fri 07:34:00 AM 38.5960 18.7760 114° Southeast 521 600 37,000  Level FlightAware ADS-B
Fri 07:34:40 AM 38.5560 18.8910 114° Southeast 521 600 37,000  Level FlightAware ADS-B
Fri 07:35:25 AM 38.5190 19.0010 113° Southeast 521 600 37,000  Level FlightAware ADS-B
Fri 07:36:12 AM 38.4810 19.1150 113° Southeast 521 600 37,000  Level FlightAware ADS-B
Fri 07:36:54 AM 38.4460 19.2730 106° East 521 600 37,000  Level FlightAware ADS-B
Fri 07:37:35 AM 38.4110 19.4050 109° East 521 600 37,000  Level FlightAware ADS-B
Fri 07:38:15 AM 38.3790 19.5260 109° East 521 600 37,000  Level FlightAware ADS-B
Fri 07:38:52 AM 38.3530 19.6240 109° East 521 600 37,000  Level FlightAware ADS-B
Fri 07:39:40 AM 38.3110 19.7800 109° East 521 600 37,000  Level FlightAware ADS-B
Fri 07:40:20 AM 38.2850 19.8770 109° East 521 600 37,000  Level FlightAware ADS-B
Fri 07:41:04 AM 38.2480 20.0120 109° East 521 600 37,000  Level FlightAware ADS-B
Fri 07:41:57 AM 38.2030 20.1610 111° Southeast 521 600 37,000  Level FlightAware ADS-B
Fri 07:42:36 AM 38.1720 20.2550 113° Southeast 521 600 37,000  Level FlightAware ADS-B
Fri 07:43:23 AM 38.1350 20.3670 113° Southeast 521 600 37,000  Level FlightAware ADS-B
Fri 07:44:11 AM 38.0960 20.4820 113° Southeast 521 600 37,000  Level FlightAware ADS-B
Fri 07:44:47 AM 38.0670 20.5690 113° Southeast 521 600 37,000  Level FlightAware ADS-B
Fri 07:45:52 AM 37.9840 20.8490 111° Southeast 526 605 37,000  Level FlightAware ADS-B
Fri 07:46:37 AM 37.9260 21.0000 116° Southeast 526 605 37,000  Level FlightAware ADS-B
Fri 07:47:21 AM 37.8870 21.1040 115° Southeast 527 606 37,000  Level FlightAware ADS-B
Fri 07:48:23 AM 37.8320 21.2510 115° Southeast 527 606 37,000  Level FlightAware ADS-B
Fri 07:48:59 AM 37.8010 21.3370 115° Southeast 527 606 37,000  Level FlightAware ADS-B
Fri 07:49:36 AM 37.7690 21.4250 115° Southeast 527 606 37,000  Level FlightAware ADS-B
Fri 07:50:23 AM 37.7270 21.5360 116° Southeast 527 606 37,000  Level FlightAware ADS-B
Fri 07:51:36 AM 37.6630 21.7100 115° Southeast 527 606 37,000  Level FlightAware ADS-B
Fri 07:52:12 AM 37.6320 21.7950 115° Southeast 527 606 37,000  Level FlightAware ADS-B
Fri 07:52:56 AM 37.5240 22.0390 119° Southeast 525 604 37,000  Level FlightAware ADS-B
Fri 07:53:44 AM 37.4820 22.1520 115° Southeast 525 604 37,000  Level FlightAware ADS-B
Fri 07:54:21 AM 37.4500 22.2390 115° Southeast 525 604 37,000  Level FlightAware ADS-B
Fri 07:55:09 AM 37.4080 22.3520 115° Southeast 525 604 37,000  Level FlightAware ADS-B
Fri 07:55:44 AM 37.3560 22.5050 113° Southeast 531 611 37,000  Level FlightAware ADS-B
Fri 07:56:46 AM 37.3150 22.6530 109° East 531 611 37,000  Level FlightAware ADS-B
Fri 07:57:27 AM 37.2630 22.8240 111° Southeast 531 611 37,000  Level FlightAware ADS-B
Fri 07:58:11 AM 37.2340 22.9220 110° East 531 611 37,000  Level FlightAware ADS-B
Fri 07:58:44 AM 37.1970 23.0460 111° Southeast 531 611 37,000  Level FlightAware ADS-B
Fri 07:59:27 AM 37.1600 23.1700 110° East 530 610 37,000  Level FlightAware ADS-B
Fri 08:00:15 AM 37.1190 23.3050 111° Southeast 530 610 37,000  Level FlightAware ADS-B
Fri 08:01:11 AM 37.0700 23.4690 110° East 530 610 37,000  Level FlightAware ADS-B
Fri 08:01:51 AM 37.0350 23.5830 111° Southeast 530 610 37,000  Level FlightAware ADS-B
Fri 08:02:33 AM 36.9990 23.7040 110° East 531 611 37,000  Level FlightAware ADS-B
Fri 08:03:17 AM 36.9600 23.8330 111° Southeast 531 611 37,000  Level FlightAware ADS-B
Fri 08:03:54 AM 36.9280 23.9360 111° Southeast 532 612 37,000  Level FlightAware ADS-B
Fri 08:04:39 AM 36.8880 24.0650 111° Southeast 532 612 37,000  Level FlightAware ADS-B
Fri 08:05:23 AM 36.8490 24.1910 111° Southeast 533 613 37,000  Level FlightAware ADS-B
Fri 08:05:59 AM 36.8170 24.2970 111° Southeast 533 613 37,000  Level FlightAware ADS-B
Fri 08:06:47 AM 36.7740 24.4350 111° Southeast 534 615 37,000  Level FlightAware ADS-B
Fri 08:07:25 AM 36.7400 24.5410 112° Southeast 534 615 37,000  Level FlightAware ADS-B
Fri 08:08:11 AM 36.6930 24.6730 114° Southeast 534 615 37,000  Level FlightAware ADS-B
Fri 08:08:54 AM 36.6490 24.7900 115° Southeast 535 616 37,000  Level FlightAware ADS-B
Fri 08:09:35 AM 36.6070 24.9050 114° Southeast 534 615 37,000  Level FlightAware ADS-B
Fri 08:10:15 AM 36.5650 25.0200 114° Southeast 535 616 37,000  Level FlightAware ADS-B
Fri 08:10:55 AM 36.5240 25.1320 114° Southeast 536 617 37,000  Level FlightAware ADS-B
Fri 08:11:39 AM 36.4780 25.2550 115° Southeast 537 618 37,000  Level FlightAware ADS-B
Fri 08:12:19 AM 36.4370 25.3670 114° Southeast 537 618 37,000  Level FlightAware ADS-B
Fri 08:13:03 AM 36.3930 25.4850 115° Southeast 538 619 37,000  Level FlightAware ADS-B
Fri 08:13:47 AM 36.3460 25.6140 114° Southeast 538 619 37,000  Level FlightAware ADS-B
Fri 08:14:25 AM 36.3060 25.7180 115° Southeast 539 620 37,000  Level FlightAware ADS-B
Fri 08:15:11 AM 36.2570 25.8490 115° Southeast 538 619 37,000  Level FlightAware ADS-B
Fri 08:16:22 AM 36.2420 25.8880 115° Southeast 537 618 37,000  Level FlightAware ADS-B
Fri 08:17:04 AM 36.1390 26.1580 115° Southeast 538 619 37,000  Level FlightAware ADS-B
Fri 08:17:45 AM 36.0940 26.2770 115° Southeast 538 619 37,000  Level FlightAware ADS-B
Fri 08:18:23 AM 36.0550 26.3800 115° Southeast 538 619 37,000  Level FlightAware ADS-B
Fri 08:19:09 AM 36.0050 26.5110 115° Southeast 538 619 37,000  Level FlightAware ADS-B
Fri 08:19:49 AM 35.9620 26.6210 116° Southeast 538 619 37,000  Level FlightAware ADS-B
Fri 08:20:29 AM 35.9190 26.7290 116° Southeast 537 618 37,000  Level FlightAware ADS-B
Fri 08:21:15 AM 35.9030 26.7730 114° Southeast 537 618 37,000  Level FlightAware ADS-B
Fri 08:21:53 AM 35.8420 26.9280 116° Southeast 539 620 37,000  Level FlightAware ADS-B
Fri 08:22:37 AM 35.7960 27.0470 115° Southeast 540 621 37,000  Level FlightAware ADS-B
Fri 08:23:22 AM 35.7420 27.1830 116° Southeast 543 625 37,000  Level FlightAware ADS-B
Fri 08:23:59 AM 35.7080 27.2700 116° Southeast 545 627 37,000  Level FlightAware ADS-B
Fri 08:25:00 AM 35.6530 27.4150 115° Southeast 545 627 37,000  Level FlightAware ADS-B
Fri 08:25:39 AM 35.6170 27.5090 115° Southeast 545 627 37,000  Level FlightAware ADS-B
Fri 08:26:15 AM 35.5850 27.5950 115° Southeast 545 627 37,000  Level FlightAware ADS-B
Fri 08:26:52 AM 35.5510 27.6830 115° Southeast 545 627 37,000  Level FlightAware ADS-B
Fri 08:27:33 AM 35.5140 27.7810 115° Southeast 545 627 37,000  Level FlightAware ADS-B
Fri 08:28:16 AM 35.4050 28.0290 118° Southeast 548 631 37,000  Level FlightAware ADS-B
Fri 08:28:48 AM 35.3680 28.1200 116° Southeast 547 629 37,000  Level FlightAware ADS-B
Fri 08:29:38 AM 35.3110 28.2590 117° Southeast 546 628 37,000  Level FlightAware ADS-B
Fri 08:30:16 AM 35.2690 28.3610 117° Southeast 546 628 37,000  Level FlightAware ADS-B
Fri 08:31:29 AM 35.2180 28.4860 117° Southeast 546 628 37,000  Level FlightAware ADS-B
Fri 08:32:06 AM 35.1450 28.6650 116° Southeast 546 628 37,000  Level FlightAware ADS-B
Fri 08:32:45 AM 35.1020 28.7700 117° Southeast 546 628 37,000  Level FlightAware ADS-B
Fri 08:33:25 AM 35.0550 28.8820 117° Southeast 546 628 37,000  Level FlightAware ADS-B
Fri 08:34:04 AM 35.0160 28.9760 117° Southeast 543 625 37,000  Level FlightAware ADS-B
Fri 08:34:52 AM 34.9550 29.1210 117° Southeast 546 628 37,000  Level FlightAware ADS-B
Fri 08:35:48 AM 34.9020 29.2500 117° Southeast 545 627 37,000  Level FlightAware ADS-B
Fri 08:36:32 AM 34.8450 29.3840 117° Southeast 540 621 37,000  Level FlightAware ADS-B
Fri 08:37:17 AM 34.7900 29.5140 117° Southeast 540 621 37,000  Level FlightAware ADS-B
Fri 08:37:54 AM 34.7620 29.5800 117° Southeast 540 621 37,000  Level FlightAware ADS-B
Fri 08:38:37 AM 34.6980 29.7320 117° Southeast 542 624 37,000  Level FlightAware ADS-B
Fri 08:39:18 AM 34.6520 29.8380 118° Southeast 542 624 37,000  Level FlightAware ADS-B
Fri 08:40:18 AM 34.5860 29.9990 116° Southeast 542 624 37,000  Level FlightAware ADS-B
Fri 08:41:03 AM 34.5280 30.1150 121° Southeast 545 627 37,000  Level FlightAware ADS-B
Fri 08:41:52 AM 34.4590 30.2570 120° Southeast 545 627 37,000  Level FlightAware ADS-B
Fri 08:42:43 AM 34.3960 30.3890 120° Southeast 546 628 37,000  Level FlightAware ADS-B
Fri 08:43:22 AM 34.3450 30.4950 120° Southeast 546 628 37,000  Level FlightAware ADS-B
Fri 08:44:08 AM 34.2880 30.6130 120° Southeast 545 627 37,000  Level FlightAware ADS-B
Fri 08:44:43 AM 34.2440 30.7060 120° Southeast 544 626 37,000  Level FlightAware ADS-B
Fri 08:45:23 AM 34.1940 30.8080 121° Southeast 544 626 37,000  Level FlightAware ADS-B
Fri 08:46:08 AM 34.1330 30.9330 120° Southeast 542 624 37,000  Level FlightAware ADS-B
Fri 08:46:49 AM 34.0830 31.0350 121° Southeast 542 624 37,000  Level FlightAware ADS-B
Fri 08:47:34 AM 34.0340 31.1330 121° Southeast 541 623 37,000  Level FlightAware ADS-B
Fri 08:48:18 AM 33.9690 31.2680 120° Southeast 541 623 37,000  Level FlightAware ADS-B
Fri 08:49:00 AM 33.9170 31.3720 121° Southeast 541 623 37,000  Level FlightAware ADS-B
Fri 08:49:39 AM 33.8650 31.4780 121° Southeast 541 623 37,000  Level FlightAware ADS-B
Fri 08:50:19 AM 33.8130 31.5810 121° Southeast 542 624 37,000  Level FlightAware ADS-B
Fri 08:51:05 AM 33.7550 31.7000 120° Southeast 541 623 37,000  Level FlightAware ADS-B
Fri 08:51:44 AM 33.7050 31.7980 122° Southeast 540 621 37,000  Level FlightAware ADS-B
Fri 08:52:25 AM 33.6520 31.9030 121° Southeast 540 621 37,000  Level FlightAware ADS-B
Fri 08:53:09 AM 33.5940 32.0190 121° Southeast 537 618 37,000  Level FlightAware ADS-B
Fri 08:53:50 AM 33.5420 32.1240 121° Southeast 538 619 37,000  Level FlightAware ADS-B
Fri 08:54:35 AM 33.4830 32.2400 121° Southeast 540 621 37,000  Level FlightAware ADS-B
Fri 08:55:14 AM 33.4370 32.3310 121° Southeast 541 623 37,000  Level FlightAware ADS-B
Fri 08:56:12 AM 33.3550 32.4930 121° Southeast 547 629 37,000 -796 Level FlightAware ADS-B
Fri 08:56:52 AM 33.3020 32.5960 122° Southeast 541 623 35,700 -2,077 Descending FlightAware ADS-B
Fri 08:57:30 AM 33.2540 32.6890 122° Southeast 531 611 34,300 -2,020 Descending FlightAware ADS-B
Fri 08:58:30 AM 33.1840 32.8250 122° Southeast 511 588 32,400 -2,038 Descending FlightAware ADS-B
Fri 08:59:16 AM 33.1210 32.9490 121° Southeast 499 574 30,700 -2,182 Descending FlightAware ADS-B
Fri 08:59:58 AM 33.0730 33.0470 120° Southeast 483 556 29,200 -1,560 Descending FlightAware ADS-B
Fri 09:00:56 AM 33.0530 33.1910 99° East 440 506 28,100 -989 Descending FlightAware ADS-B
Fri 09:01:29 AM 33.0500 33.2600 93° East 423 487 27,700 -1,325 Descending FlightAware ADS-B
Fri 09:02:13 AM 33.0480 33.3630 91° East 413 475 26,400 -1,714 Descending FlightAware ADS-B
Fri 09:03:00 AM 33.0440 33.4710 93° East 399 459 25,100 -1,714 Descending FlightAware ADS-B
Fri 09:03:37 AM 33.0420 33.5450 92° East 391 450 24,000 -1,690 Descending FlightAware ADS-B
Fri 09:04:11 AM 33.0220 33.6190 108° East 362 417 23,100 -1,562 Descending FlightAware ADS-B
Fri 09:04:50 AM 32.9740 33.6670 140° Southeast 349 402 22,100 -1,636 Descending FlightAware ADS-B
Fri 09:05:06 AM 32.9470 33.6740 168° South 348 400 21,600 -1,690 Descending FlightAware ADS-B
Fri 09:06:01 AM 32.8610 33.6620 187° South 340 391 20,100 -1,625 Descending FlightAware ADS-B
Fri 09:06:42 AM 32.7960 33.6530 187° South 332 382 19,000 -1,425 Descending FlightAware ADS-B
Fri 09:07:21 AM 32.7420 33.6730 163° South 321 369 18,200 -1,119 Descending FlightAware ADS-B
Fri 09:07:41 AM 32.7230 33.6990 131° Southeast 317 365 17,900 -1,000 Descending FlightAware ADS-B
Fri 09:08:21 AM 32.6920 33.7590 122° Southeast 320 368 17,200 -1,105 Descending FlightAware ADS-B
Fri 09:08:57 AM 32.6650 33.8150 120° Southeast 317 365 16,500 -1,171 Descending FlightAware ADS-B
Fri 09:09:43 AM 32.6290 33.8840 122° Southeast 319 367 15,600 -1,159 Descending FlightAware ADS-B
Fri 09:10:25 AM 32.5970 33.9460 121° Southeast 314 361 14,800 -1,059 Descending FlightAware ADS-B
Fri 09:11:08 AM 32.5660 34.0040 122° Southeast 310 357 14,100 -1,116 Descending FlightAware ADS-B
Fri 09:11:51 AM 32.5330 34.0690 121° Southeast 305 351 13,200 -1,172 Descending FlightAware ADS-B
Fri 09:12:35 AM 32.5000 34.1310 122° Southeast 298 343 12,400 -1,171 Descending FlightAware ADS-B
Fri 09:13:13 AM 32.4670 34.1820 127° Southeast 300 345 11,600 -1,301 Descending FlightAware ADS-B
Fri 09:13:58 AM 32.4250 34.2310 135° Southeast 294 338 10,600 -1,200 Descending FlightAware ADS-B
Fri 09:14:33 AM 32.3920 34.2700 135° Southeast 284 327 10,000 -1,143 Descending FlightAware ADS-B
Fri 09:15:01 AM 32.3650 34.3020 135° Southeast 280 322 9,400 -667 Descending FlightAware ADS-B
Fri 09:15:27 AM 32.3450 34.3260 135° Southeast 280 322 9,400 -581 Level FlightAware ADS-B
Fri 09:16:34 AM 32.2870 34.3940 135° Southeast 279 321 8,500 -587 Descending FlightAware ADS-B
Fri 09:16:59 AM 32.2680 34.4170 134° Southeast 279 321 8,500  Level FlightAware ADS-B
Fri 09:17:23 AM 32.2490 34.4390 136° Southeast 279 321 8,500  Level FlightAware ADS-B
Fri 09:17:50 AM 32.2280 34.4630 136° Southeast 279 321 8,500  Level FlightAware ADS-B
Fri 09:20:00 AM 32.0535 34.7745 115° Southeast  Level FlightAware Approximate
Fri 09:21:00 AM 32.0000 34.8667 125° Southeast  Level FlightAware Approximate
Fri 09:22:00 AM 32.0095 34.8769 125° Southeast  Level Estimated
Fri 09:23:00 AM 32.0095 34.8769 125° Southeast  Level Estimated
Fri 09:24:00 AM 32.0095 34.8769 125° Southeast  Level Estimated
Fri 09:25:00 AM 32.0095 34.8769 125° Southeast  Level Estimated
Fri 09:26:00 AM 32.0095 34.8769 125° Southeast  Level Estimated
Fri 09:27:00 AM 32.0095 34.8769 125° Southeast  Level Estimated
Fri 09:28:00 AM 32.0095 34.8769 125° Southeast  Level Estimated
Fri 09:29:00 AM 32.0095 34.8769 125° Southeast  Level Estimated
Fri 09:30:00 AM 32.0095 34.8769 125° Southeast  Level Estimated

Login

Don't have an account? Register now (free) for customized features, flight alerts, and more!